This is the latest recevied weather packets stored in our database for station/object DO9LL-1. If no packets are shown the sender has not sent any weather packets the latest 1 day(s).
| Time | Temp. | Humidity | Pressure | Rain* | Wind** | Luminosity | Snow |
|---|---|---|---|---|---|---|---|
| 1836274820 | 16.67° C | 75% | 1014.7 hPa | 0 mm | 0 m/s | - | - |
| 1836274215 | 16.67° C | 76% | 1014.8 hPa | 0 mm | 0 m/s | - | - |
| 1778035345 | 9.44° C | 97% | 1005.7 hPa | 2.29 mm | 0.45 m/s, 309° | - | - |
| 1778034743 | 9.44° C | 97% | 1005.8 hPa | 2.29 mm | 0.45 m/s, 313° | - | - |
| 1778034138 | 9.44° C | 98% | 1006 hPa | 2.54 mm | 0.45 m/s, 326° | - | - |
| 1778033554 | 9.44° C | 98% | 1005.9 hPa | 2.79 mm | 0 m/s | - | - |
| 1778032951 | 9.44° C | 98% | 1006.1 hPa | 2.79 mm | 0 m/s | - | - |
| 1778032348 | 9.44° C | 98% | 1006 hPa | 2.54 mm | 0 m/s | - | - |
| 1778031745 | 9.44° C | 98% | 1006.1 hPa | 2.79 mm | 0 m/s | - | - |
| 1778031141 | 9.44° C | 98% | 1006 hPa | 2.54 mm | 0 m/s | - | - |
| 1778030540 | 9.44° C | 98% | 1006.1 hPa | 2.54 mm | 0.45 m/s, 323° | - | - |
| 1778029960 | 9.44° C | 98% | 1006.1 hPa | 2.54 mm | 0 m/s | - | - |
| 1778029351 | 9.44° C | 97% | 1006.2 hPa | 2.29 mm | 0 m/s | - | - |
| 1778028750 | 9.44° C | 97% | 1006.2 hPa | 2.29 mm | 0 m/s | - | - |
| 1778028145 | 9.44° C | 97% | 1006.4 hPa | 2.03 mm | 0 m/s | - | - |
| 1778027542 | 9.44° C | 97% | 1006.3 hPa | 2.03 mm | 0.45 m/s, 325° | - | - |
| 1778026940 | 9.44° C | 97% | 1006.5 hPa | 1.78 mm | 0 m/s | - | - |
| 1778026336 | 9.44° C | 97% | 1006.5 hPa | 1.52 mm | 0 m/s | - | - |
| 1778025753 | 9.44° C | 97% | 1006.6 hPa | 1.52 mm | 0 m/s | - | - |
| 1778025150 | 9.44° C | 97% | 1006.8 hPa | 1.52 mm | 0.45 m/s, 353° | - | - |
| 1778024546 | 9.44° C | 97% | 1006.8 hPa | 1.78 mm | 0.45 m/s, 349° | - | - |
| 1778023944 | 9.44° C | 97% | 1006.9 hPa | 1.52 mm | 0 m/s | - | - |
| 1778023340 | 9.44° C | 97% | 1006.9 hPa | 1.27 mm | 0.45 m/s, 353° | - | - |
| 1778022737 | 9.44° C | 97% | 1007 hPa | 1.02 mm | 0.45 m/s, 348° | - | - |
| 1778022154 | 9.44° C | 96% | 1007.1 hPa | 0.76 mm | 0.45 m/s, 358° | - | - |
* Rain latest hour (hover to see other rain measurements)
** Current wind speed in m/s (hover to see current wind gust speed)